createdAt,value
2022-09-01T00:00:14.850Z,19.20
2022-09-01T00:06:59.746Z,20.05
2022-09-01T00:13:42.181Z,18.13
2022-09-01T00:20:24.764Z,17.30
2022-09-01T00:27:07.189Z,16.75
2022-09-01T00:33:51.253Z,16.63
2022-09-01T00:40:34.015Z,16.83
2022-09-01T00:47:16.641Z,16.00
2022-09-01T00:54:01.363Z,16.50
2022-09-01T01:00:46.957Z,16.40
2022-09-01T01:07:29.435Z,17.70
2022-09-01T01:14:17.101Z,18.05
2022-09-01T01:21:24.688Z,16.10
2022-09-01T01:28:20.025Z,16.15
2022-09-01T01:35:06.873Z,16.67
2022-09-01T01:41:50.645Z,15.73
2022-09-01T01:48:37.988Z,16.25
2022-09-01T01:55:23.515Z,15.98
2022-09-01T02:02:09.645Z,15.63
2022-09-01T02:08:56.609Z,17.17
2022-09-01T02:15:44.382Z,16.20
2022-09-01T02:22:26.903Z,16.10
2022-09-01T02:29:18.969Z,16.27
2022-09-01T02:36:04.327Z,15.18
2022-09-01T02:42:47.921Z,15.73
2022-09-01T02:49:30.928Z,15.10
2022-09-01T02:56:14.499Z,14.93
2022-09-01T03:02:59.331Z,15.50
2022-09-01T03:09:43.218Z,16.40
2022-09-01T03:16:25.731Z,15.27
2022-09-01T03:23:10.782Z,16.58
2022-09-01T03:29:53.218Z,17.45
2022-09-01T03:36:35.679Z,16.65
2022-09-01T03:43:19.959Z,16.70
2022-09-01T03:50:02.378Z,16.83
2022-09-01T03:56:45.447Z,17.65
2022-09-01T04:03:34.551Z,17.08
2022-09-01T04:10:19.054Z,17.80
2022-09-01T04:17:20.126Z,18.52
2022-09-01T04:24:05.152Z,18.33
2022-09-01T04:30:48.623Z,19.33
2022-09-01T04:37:36.476Z,18.63
2022-09-01T04:44:19.450Z,20.05
2022-09-01T04:51:01.870Z,19.70
2022-09-01T04:57:49.489Z,20.17
2022-09-01T05:04:34.011Z,19.98
2022-09-01T05:11:17.770Z,19.08
2022-09-01T05:18:09.908Z,17.92
2022-09-01T05:24:54.999Z,18.85
2022-09-01T05:31:38.783Z,18.65
2022-09-01T05:38:21.827Z,17.58
2022-09-01T05:45:04.753Z,17.77
2022-09-01T05:51:51.003Z,15.88
2022-09-01T06:05:40.888Z,15.82
2022-09-01T06:12:27.993Z,15.07
2022-09-01T06:19:12.559Z,16.42
2022-09-01T06:25:59.797Z,14.20
2022-09-01T06:32:45.352Z,15.98
2022-09-01T06:39:27.848Z,13.75
2022-09-01T06:46:10.687Z,13.52
2022-09-01T07:00:18.747Z,14.48
2022-09-01T07:07:54.190Z,13.52
2022-09-01T07:14:27.106Z,14.70
2022-09-01T07:21:38.796Z,13.20
2022-09-01T07:28:17.100Z,12.30
2022-09-01T07:35:00.882Z,13.13
2022-09-01T07:50:09.764Z,10.32
2022-09-01T07:56:23.571Z,9.20
2022-09-01T08:03:07.119Z,8.93
2022-09-01T08:09:49.924Z,9.38
2022-09-01T08:16:39.457Z,8.50
2022-09-01T08:23:26.824Z,8.40
2022-09-01T08:30:13.088Z,8.43
2022-09-01T08:36:56.276Z,8.05
2022-09-01T08:43:57.554Z,7.88
2022-09-01T08:50:41.167Z,6.53
2022-09-01T08:57:53.851Z,5.65
2022-09-01T09:05:22.953Z,4.55
2022-09-01T09:12:24.564Z,4.97
2022-09-01T09:19:25.446Z,5.82
2022-09-01T09:26:08.338Z,5.75
2022-09-01T09:33:37.248Z,6.20
2022-09-01T09:40:17.368Z,5.78
2022-09-01T09:47:00.626Z,5.05
2022-09-01T09:53:43.258Z,5.13
2022-09-01T10:00:34.255Z,5.45
2022-09-01T10:07:46.418Z,4.88
2022-09-01T10:14:53.344Z,4.63
2022-09-01T10:21:41.298Z,4.25
2022-09-01T10:28:24.456Z,4.57
2022-09-01T10:35:14.547Z,3.83
2022-09-01T10:42:04.536Z,4.30
2022-09-01T10:48:55.678Z,4.70
2022-09-01T10:55:59.587Z,4.40
2022-09-01T11:10:54.463Z,4.25
2022-09-01T11:17:39.859Z,3.95
2022-09-01T11:24:44.150Z,3.83
2022-09-01T11:31:41.882Z,3.38
2022-09-01T11:38:25.470Z,3.22
2022-09-01T11:45:22.070Z,3.50
2022-09-01T11:52:05.754Z,3.70
2022-09-01T11:58:48.127Z,3.70
2022-09-01T12:05:32.215Z,3.50
2022-09-01T12:12:35.908Z,3.58
2022-09-01T12:19:27.594Z,3.10
2022-09-01T12:26:16.224Z,3.45
2022-09-01T12:40:33.394Z,2.92
2022-09-01T12:47:34.047Z,2.80
2022-09-01T12:54:24.442Z,3.20
2022-09-01T13:01:16.208Z,3.90
2022-09-01T13:08:10.625Z,3.80
2022-09-01T13:14:53.034Z,3.53
2022-09-01T13:21:36.278Z,3.40
2022-09-01T13:28:20.420Z,3.50
2022-09-01T13:35:03.629Z,3.65
2022-09-01T13:41:47.109Z,3.60
2022-09-01T13:49:02.465Z,3.90
2022-09-01T13:55:34.731Z,3.53
2022-09-01T14:02:17.162Z,3.53
2022-09-01T14:09:00.748Z,3.05
2022-09-01T14:15:44.510Z,3.08
2022-09-01T14:22:26.966Z,3.83
2022-09-01T14:29:09.433Z,3.20
2022-09-01T14:35:51.792Z,3.60
2022-09-01T14:42:35.596Z,3.03
2022-09-01T14:49:22.496Z,3.00
2022-09-01T14:56:05.216Z,2.78
2022-09-01T15:02:48.427Z,3.03
2022-09-01T15:09:31.077Z,3.10
2022-09-01T15:16:19.560Z,2.55
2022-09-01T15:23:02.044Z,2.33
2022-09-01T15:29:48.888Z,2.83
2022-09-01T15:36:31.856Z,2.58
2022-09-01T15:43:14.223Z,2.58
2022-09-01T15:49:59.588Z,3.20
2022-09-01T15:56:45.034Z,2.90
2022-09-01T16:03:30.083Z,2.67
2022-09-01T16:10:12.775Z,2.75
2022-09-01T16:17:13.825Z,3.08
2022-09-01T16:23:56.288Z,3.00
2022-09-01T16:30:39.670Z,2.70
2022-09-01T16:37:59.452Z,2.58
2022-09-01T16:44:47.629Z,2.50
2022-09-01T16:51:43.260Z,2.80
2022-09-01T16:58:48.528Z,3.70
2022-09-01T17:05:45.545Z,3.72
2022-09-01T17:12:35.638Z,3.63
2022-09-01T17:19:20.306Z,3.63
2022-09-01T17:26:16.596Z,3.50
2022-09-01T17:33:17.272Z,3.55
2022-09-01T17:40:41.629Z,5.70
2022-09-01T17:47:38.735Z,3.63
2022-09-01T17:54:51.042Z,4.30
2022-09-01T18:02:12.547Z,3.83
2022-09-01T18:08:58.266Z,8.68
2022-09-01T18:15:57.261Z,3.33
2022-09-01T18:29:36.003Z,3.53
2022-09-01T18:36:39.555Z,3.65
2022-09-01T18:43:33.638Z,4.15
2022-09-01T18:50:32.106Z,4.13
2022-09-01T18:57:21.063Z,4.13
2022-09-01T19:04:39.363Z,3.60
2022-09-01T19:11:39.774Z,3.60
2022-09-01T19:18:39.530Z,3.78
2022-09-01T19:25:36.755Z,5.15
2022-09-01T19:32:22.315Z,16.52
2022-09-01T19:39:11.810Z,6.72
2022-09-01T19:46:11.825Z,5.28
2022-09-01T19:53:00.516Z,4.40
2022-09-01T19:59:42.837Z,3.85
2022-09-01T20:06:35.840Z,4.07
2022-09-01T20:13:24.878Z,3.70
2022-09-01T20:20:36.641Z,4.15
2022-09-01T20:27:24.772Z,3.85
2022-09-01T20:34:32.619Z,5.82
2022-09-01T20:41:43.002Z,3.53
2022-09-01T20:48:27.483Z,3.95
2022-09-01T20:55:35.789Z,4.38
2022-09-01T21:02:43.192Z,4.00
2022-09-01T21:09:49.798Z,3.55
2022-09-01T21:17:19.038Z,4.10
2022-09-01T21:24:05.322Z,4.35
2022-09-01T21:30:51.955Z,5.40
2022-09-01T21:37:35.060Z,4.35
2022-09-01T21:44:17.731Z,4.32
2022-09-01T21:51:00.508Z,4.65
2022-09-01T21:57:43.257Z,4.22
2022-09-01T22:04:25.614Z,5.38
2022-09-01T22:11:09.857Z,4.95
2022-09-01T22:17:53.366Z,5.75
2022-09-01T22:24:36.328Z,5.15
2022-09-01T22:31:20.669Z,5.85
2022-09-01T22:38:03.046Z,5.65
2022-09-01T22:44:45.383Z,5.57
2022-09-01T22:51:28.332Z,5.60
2022-09-01T22:58:11.248Z,5.82
2022-09-01T23:04:53.634Z,4.65
2022-09-01T23:11:36.451Z,5.05
2022-09-01T23:18:19.241Z,5.40
2022-09-01T23:25:01.678Z,5.25
2022-09-01T23:31:47.667Z,5.80
2022-09-01T23:38:31.725Z,5.38
2022-09-01T23:45:14.192Z,5.65
2022-09-01T23:51:56.808Z,5.70
2022-09-01T23:58:40.126Z,5.75
